Time;durP1;ratioP1;P1;durP2;ratioP2;P2;SDS_P1;SDS_P2;PMS_P1;PMS_P2;Temp;Humidity;BMP_temperature;BMP_pressure;BME280_temperature;BME280_humidity;BME280_pressure;Samples;Min_cycle;Max_cycle;Signal;HPM_P1;HPM_P2
2022/05/08 00:01:41;;;;;;;3.17;2.53;;;12.20;59.40;;;12.23;47.65;95436.09;5054544;28;20540;-57
2022/05/08 00:04:08;;;;;;;3.20;2.20;;;12.10;59.70;;;12.20;47.76;95431.91;5053172;28;20822;-62
2022/05/08 00:06:35;;;;;;;12.13;3.10;;;12.10;60.00;;;12.19;47.44;95430.25;5047225;28;21011;-63
2022/05/08 00:09:02;;;;;;;8.80;2.63;;;12.10;59.60;;;12.12;47.38;95426.47;5057793;28;20458;-63
2022/05/08 00:11:30;;;;;;;6.40;2.37;;;12.00;59.60;;;12.11;47.64;95430.06;5050810;28;20537;-64
2022/05/08 00:13:57;;;;;;;6.37;2.43;;;12.00;59.90;;;12.11;47.86;95438.00;5054322;28;20460;-64
2022/05/08 00:16:24;;;;;;;6.97;2.70;;;12.00;59.90;;;12.07;47.77;95423.44;5061268;28;20471;-56
2022/05/08 00:18:53;;;;;;;2.90;2.30;;;12.00;60.00;;;12.03;47.86;95429.94;5058903;28;20886;-56
2022/05/08 00:21:20;;;;;;;3.93;2.77;;;11.90;59.90;;;12.00;47.72;95435.47;5056103;28;20539;-57
2022/05/08 00:23:47;;;;;;;5.17;2.33;;;11.90;60.10;;;11.94;47.72;95426.28;5061655;28;20536;-57
2022/05/08 00:26:16;;;;;;;10.13;2.40;;;11.80;60.10;;;11.90;47.84;95429.28;5048555;28;20499;-64
2022/05/08 00:28:43;;;;;;;3.80;2.13;;;11.80;60.20;;;11.84;48.00;95436.78;5053662;28;20462;-57
2022/05/08 00:31:11;;;;;;;7.43;2.13;;;11.80;60.20;;;11.78;48.21;95432.03;5058084;28;20479;-57
2022/05/08 00:33:38;;;;;;;8.30;2.47;;;11.70;60.50;;;11.75;48.21;95428.84;5056661;28;20572;-64
2022/05/08 00:36:07;;;;;;;4.33;2.80;;;11.70;60.90;;;11.73;48.48;95428.97;5060524;28;20487;-64
2022/05/08 00:38:35;;;;;;;5.33;2.50;;;11.60;61.10;;;11.71;48.38;95430.94;5058464;28;20455;-64
2022/05/08 00:41:02;;;;;;;3.17;2.37;;;11.60;60.90;;;11.66;48.38;95436.59;5051577;28;20495;-64
2022/05/08 00:43:33;;;;;;;3.00;2.37;;;11.60;61.00;;;11.61;48.39;95424.78;5056987;28;20463;-64
2022/05/08 00:46:02;;;;;;;6.20;2.50;;;11.50;61.00;;;11.56;48.49;95427.81;5054000;28;20518;-64
2022/05/08 00:48:29;;;;;;;7.07;2.77;;;11.50;61.40;;;11.51;48.70;95424.75;5058095;28;20466;-65
2022/05/08 00:50:56;;;;;;;16.73;2.27;;;11.40;61.60;;;11.46;48.75;95437.44;5051385;28;20482;-64
2022/05/08 00:53:27;;;;;;;10.17;2.63;;;11.40;61.70;;;11.39;48.79;95429.25;5056480;28;20455;-56
2022/05/08 00:55:55;;;;;;;6.80;2.27;;;11.30;61.80;;;11.37;48.78;95431.19;5052272;28;21261;-57
2022/05/08 00:58:22;;;;;;;3.77;2.63;;;11.30;62.10;;;11.32;48.90;95429.91;5054982;28;20545;-57
2022/05/08 01:00:49;;;;;;;4.27;2.50;;;11.20;62.00;;;11.28;49.02;95426.69;5060943;28;20517;-57
2022/05/08 01:03:17;;;;;;;6.50;2.10;;;11.20;62.30;;;11.27;49.09;95427.66;5053480;28;20465;-57
2022/05/08 01:05:44;;;;;;;3.50;2.40;;;11.20;62.50;;;11.27;49.40;95436.38;5055884;28;21019;-58
2022/05/08 01:08:12;;;;;;;3.87;2.23;;;11.20;63.60;;;11.28;49.32;95437.22;5060210;28;20462;-64
2022/05/08 01:10:40;;;;;;;10.13;2.80;;;11.20;63.00;;;11.30;49.21;95427.41;5058316;28;20474;-59
2022/05/08 01:13:08;;;;;;;5.23;2.80;;;11.20;63.00;;;11.33;49.19;95432.41;5053974;28;20979;-62
2022/05/08 01:15:42;;;;;;;2.50;2.30;;;11.20;63.30;;;11.36;49.30;95432.13;5056656;28;21163;-57
2022/05/08 01:18:09;;;;;;;2.70;2.20;;;11.20;63.10;;;11.36;49.10;95428.69;5055639;28;20451;-57
2022/05/08 01:20:37;;;;;;;2.70;2.37;;;11.20;62.70;;;11.32;49.28;95436.00;5060116;28;20471;-62
2022/05/08 01:23:06;;;;;;;3.10;2.50;;;11.20;62.90;;;11.30;49.10;95432.66;5053335;28;20455;-57
2022/05/08 01:25:34;;;;;;;7.80;3.07;;;11.20;63.00;;;11.28;49.06;95437.22;5053827;28;20530;-64
2022/05/08 01:28:03;;;;;;;5.83;2.87;;;11.20;62.90;;;11.28;49.11;95430.16;5059873;28;21037;-56
2022/05/08 01:30:30;;;;;;;3.93;2.60;;;11.20;63.30;;;11.30;49.16;95432.66;5050834;28;20507;-56
2022/05/08 01:33:00;;;;;;;8.90;2.50;;;11.20;63.60;;;11.34;49.34;95425.31;5058023;28;20494;-62
2022/05/08 01:35:27;;;;;;;3.10;2.80;;;11.20;63.40;;;11.36;49.19;95426.88;5052453;28;20480;-57
2022/05/08 01:37:55;;;;;;;9.20;3.37;;;11.20;63.00;;;11.36;49.10;95420.78;5059373;28;20546;-63
2022/05/08 01:40:24;;;;;;;6.63;2.40;;;11.20;63.20;;;11.36;48.92;95418.97;5056074;28;20549;-58
2022/05/08 01:42:51;;;;;;;6.90;3.30;;;11.20;62.90;;;11.36;48.90;95418.97;5054956;28;20459;-63
2022/05/08 01:45:19;;;;;;;4.40;2.80;;;11.20;62.70;;;11.34;48.69;95418.28;5054484;28;20494;-61
2022/05/08 01:50:31;;;;;;;4.10;3.50;;;11.20;62.40;;;11.28;48.54;95419.63;5051694;28;20630;-60
2022/05/08 01:52:58;;;;;;;7.20;3.20;;;11.20;62.20;;;11.24;48.42;95412.94;5057131;28;20447;-56
2022/05/08 01:55:27;;;;;;;4.93;3.30;;;11.10;62.00;;;11.20;48.44;95422.09;5061062;28;20501;-64
2022/05/08 01:57:54;;;;;;;4.43;3.20;;;11.10;61.80;;;11.15;48.37;95420.78;5047761;28;20451;-58
2022/05/08 02:00:22;;;;;;;3.33;3.03;;;11.10;61.60;;;11.08;48.04;95417.84;5050581;28;20554;-63
2022/05/08 02:02:49;;;;;;;6.20;3.00;;;11.00;61.50;;;11.00;48.28;95415.88;5049291;28;20974;-63
2022/05/08 02:05:17;;;;;;;7.03;3.13;;;10.90;61.50;;;10.94;48.56;95416.38;5060231;28;20536;-57
2022/05/08 02:07:45;;;;;;;3.60;3.30;;;10.90;61.50;;;10.86;48.48;95411.75;5053624;28;20463;-64
2022/05/08 02:10:12;;;;;;;4.00;2.50;;;10.80;61.60;;;10.82;48.56;95417.41;5050410;28;20501;-56
2022/05/08 02:12:41;;;;;;;2.90;2.70;;;10.70;61.80;;;10.73;48.55;95408.47;5046033;28;20490;-57
2022/05/08 02:15:09;;;;;;;4.50;3.33;;;10.70;61.80;;;10.66;48.61;95402.03;5059759;28;21079;-63
2022/05/08 02:17:37;;;;;;;3.57;3.17;;;10.60;62.00;;;10.61;48.94;95406.84;5057278;28;20563;-63
2022/05/08 02:20:06;;;;;;;3.87;2.60;;;10.50;62.00;;;10.54;48.74;95415.25;5057244;28;20857;-63
2022/05/08 02:22:33;;;;;;;5.50;3.10;;;10.50;62.20;;;10.48;48.92;95407.84;5055658;28;20563;-56
2022/05/08 02:25:00;;;;;;;5.87;2.63;;;10.40;62.30;;;10.44;49.04;95413.50;5061191;28;20455;-62
2022/05/08 02:27:35;;;;;;;3.70;2.30;;;10.40;62.60;;;10.40;49.23;95412.94;5051971;28;20468;-63
2022/05/08 02:30:06;;;;;;;6.00;2.70;;;10.30;63.10;;;10.36;49.16;95411.50;5053494;28;20450;-57
2022/05/08 02:32:33;;;;;;;4.40;2.97;;;10.30;63.00;;;10.34;49.13;95405.53;5050765;28;20465;-55
2022/05/08 02:35:00;;;;;;;5.73;2.60;;;10.30;63.00;;;10.33;49.16;95411.75;5050631;28;20542;-63
2022/05/08 02:37:28;;;;;;;8.90;2.70;;;10.30;63.10;;;10.31;49.01;95409.22;5051549;28;20456;-63
2022/05/08 02:39:55;;;;;;;4.83;3.40;;;10.30;63.10;;;10.29;49.25;95405.88;5056750;28;20886;-63
2022/05/08 02:42:23;;;;;;;3.47;3.13;;;10.20;63.00;;;10.28;49.31;95401.56;5060527;28;20545;-57
2022/05/08 02:44:50;;;;;;;2.97;2.70;;;10.20;63.00;;;10.30;49.33;95412.81;5053899;28;20577;-62
2022/05/08 02:47:19;;;;;;;9.70;3.53;;;10.20;63.10;;;10.31;49.52;95403.94;5052798;28;20486;-63
2022/05/08 02:49:46;;;;;;;2.83;2.63;;;10.20;63.80;;;10.32;49.55;95402.19;5048869;28;20850;-63
2022/05/08 02:52:13;;;;;;;3.40;2.80;;;10.20;63.80;;;10.33;49.80;95412.59;5051537;28;20980;-63
2022/05/08 02:54:40;;;;;;;7.90;3.00;;;10.20;64.90;;;10.37;50.00;95414.00;5054059;28;20451;-64
2022/05/08 02:59:52;;;;;;;4.93;3.93;;;10.30;64.70;;;10.42;49.55;95412.81;5053640;28;20986;-57
2022/05/08 03:02:21;;;;;;;6.03;3.20;;;10.30;63.90;;;10.42;49.48;95412.81;5052586;28;20460;-56
2022/05/08 03:04:48;;;;;;;4.20;3.50;;;10.30;63.60;;;10.40;49.06;95416.38;5046727;28;20467;-57
2022/05/08 03:07:15;;;;;;;5.50;3.10;;;10.30;63.10;;;10.38;49.24;95415.69;5051837;28;20861;-55
2022/05/08 03:09:43;;;;;;;4.67;3.27;;;10.30;63.00;;;10.37;49.34;95424.50;5048907;28;20456;-57
2022/05/08 03:12:11;;;;;;;5.10;3.53;;;10.30;63.50;;;10.38;49.37;95423.56;5053226;28;20939;-57
2022/05/08 03:14:39;;;;;;;4.80;3.07;;;10.30;63.40;;;10.38;49.64;95422.75;5047112;28;20452;-62
2022/05/08 03:17:07;;;;;;;4.33;3.50;;;10.30;63.70;;;10.38;49.46;95418.31;5046339;28;20518;-63
2022/05/08 03:19:36;;;;;;;8.90;2.90;;;10.30;64.10;;;10.42;49.29;95415.44;5048556;28;20599;-62
2022/05/08 03:22:03;;;;;;;2.93;2.73;;;10.30;64.20;;;10.45;49.66;95417.81;5045218;28;20575;-63
2022/05/08 03:24:31;;;;;;;5.90;4.33;;;10.30;64.30;;;10.50;49.51;95423.50;5046229;28;20459;-56
2022/05/08 03:26:58;;;;;;;8.97;5.50;;;10.40;64.50;;;10.53;49.82;95423.25;5049845;28;20594;-64
2022/05/08 03:29:26;;;;;;;8.73;5.13;;;10.40;64.80;;;10.54;49.76;95428.41;5051763;28;20447;-64
2022/05/08 03:31:53;;;;;;;6.27;5.03;;;10.40;65.30;;;10.55;50.51;95426.59;5045804;28;20500;-56
2022/05/08 03:34:21;;;;;;;5.90;4.50;;;10.40;66.00;;;10.56;50.72;95423.84;5057538;28;20462;-64
2022/05/08 03:36:50;;;;;;;11.33;4.60;;;10.50;66.70;;;10.57;50.76;95429.94;5060714;28;20782;-64
2022/05/08 03:39:17;;;;;;;5.60;3.60;;;10.50;66.90;;;10.57;50.69;95432.59;5060095;28;20455;-56
2022/05/08 03:41:44;;;;;;;5.57;5.07;;;10.50;67.20;;;10.58;50.71;95428.97;5059649;28;20574;-57
2022/05/08 03:44:11;;;;;;;6.53;4.30;;;10.50;67.70;;;10.58;51.45;95436.88;5057526;28;20454;-56
2022/05/08 03:46:39;;;;;;;16.90;4.47;;;10.50;68.20;;;10.57;51.57;95435.22;5046400;28;20503;-63
2022/05/08 03:49:06;;;;;;;10.93;4.53;;;10.50;68.50;;;10.58;51.60;95436.88;5051039;28;20454;-64
2022/05/08 03:51:34;;;;;;;4.50;3.70;;;10.50;68.60;;;10.58;51.44;95442.97;5048378;28;20479;-57
2022/05/08 03:54:05;;;;;;;14.93;5.07;;;10.50;68.90;;;10.59;51.41;95438.53;5055928;28;20460;-56
2022/05/08 03:56:33;;;;;;;6.63;4.60;;;10.50;68.90;;;10.58;51.93;95437.72;5045425;28;20492;-57
2022/05/08 03:59:00;;;;;;;5.67;3.97;;;10.50;69.00;;;10.57;52.34;95440.47;5059258;28;20528;-62
2022/05/08 04:01:27;;;;;;;9.23;3.83;;;10.50;70.00;;;10.55;51.69;95442.38;5047478;28;20483;-63
2022/05/08 04:03:54;;;;;;;5.13;3.30;;;10.50;69.80;;;10.53;52.17;95441.69;5055627;28;20454;-62
2022/05/08 04:06:22;;;;;;;6.60;3.80;;;10.50;70.20;;;10.54;51.83;95443.34;5062708;28;20494;-63
2022/05/08 04:08:52;;;;;;;7.67;3.97;;;10.50;69.70;;;10.55;52.01;95442.38;5055705;28;20972;-56
2022/05/08 04:11:20;;;;;;;5.47;3.50;;;10.50;69.90;;;10.57;52.08;95445.75;5049108;28;20479;-57
2022/05/08 04:13:48;;;;;;;6.63;4.40;;;10.50;69.90;;;10.59;52.13;95439.38;5048600;28;20483;-56
2022/05/08 04:16:19;;;;;;;3.90;3.60;;;10.50;70.50;;;10.63;51.95;95447.88;5050641;28;20856;-64
2022/05/08 04:18:46;;;;;;;9.53;4.53;;;10.50;70.30;;;10.67;52.06;95446.63;5053091;28;20463;-64
2022/05/08 04:21:13;;;;;;;7.07;4.07;;;10.50;70.20;;;10.71;52.34;95447.22;5049492;28;20515;-57
2022/05/08 04:26:28;;;;;;;7.70;3.80;;;10.60;70.70;;;10.79;51.93;95457.13;5054943;28;20521;-58
2022/05/08 04:28:56;;;;;;;8.60;3.60;;;10.70;70.40;;;10.83;51.66;95453.25;5053153;28;20462;-56
2022/05/08 04:31:23;;;;;;;4.90;4.00;;;10.70;69.90;;;10.86;51.82;95455.63;5045925;28;20484;-57
2022/05/08 04:33:50;;;;;;;4.10;3.57;;;10.80;70.10;;;10.91;51.62;95458.75;5056759;28;20459;-64
2022/05/08 04:36:18;;;;;;;7.87;3.47;;;10.80;70.00;;;10.94;51.52;95456.69;5050534;28;20505;-57
2022/05/08 04:38:45;;;;;;;5.30;3.57;;;10.80;70.00;;;10.98;51.53;95454.63;5044735;28;20513;-56
2022/05/08 04:41:12;;;;;;;4.33;3.93;;;10.90;70.10;;;11.04;51.35;95461.19;5055349;28;21081;-57
2022/05/08 04:43:41;;;;;;;5.47;3.70;;;10.90;69.60;;;11.10;51.26;95458.84;5052806;28;20463;-65
2022/05/08 04:46:10;;;;;;;5.13;4.00;;;11.00;69.60;;;11.15;51.17;95455.84;5052789;28;21009;-57
2022/05/08 04:48:38;;;;;;;15.47;4.23;;;11.00;69.70;;;11.20;51.26;95453.69;5056634;28;20921;-64
2022/05/08 04:51:05;;;;;;;9.07;4.10;;;11.10;69.50;;;11.26;51.08;95460.22;5049588;28;20987;-57
2022/05/08 04:53:33;;;;;;;17.37;4.73;;;11.10;69.30;;;11.32;50.87;95457.06;5046083;28;20951;-58
2022/05/08 04:56:00;;;;;;;6.17;4.03;;;11.20;68.70;;;11.35;50.83;95461.25;5046868;28;21039;-58
2022/05/08 04:58:29;;;;;;;8.57;5.27;;;11.20;68.70;;;11.39;51.17;95465.28;5051436;28;20447;-62
2022/05/08 05:00:58;;;;;;;4.13;3.73;;;11.30;69.20;;;11.39;51.03;95462.66;5049398;28;20504;-56
2022/05/08 05:03:26;;;;;;;5.17;4.27;;;11.30;69.20;;;11.45;51.07;95465.59;5044745;28;20455;-57
2022/05/08 05:05:53;;;;;;;5.57;3.60;;;11.30;69.30;;;11.52;51.08;95468.53;5051918;28;21102;-65
2022/05/08 05:08:20;;;;;;;5.73;4.07;;;11.40;69.40;;;11.57;50.98;95465.50;5055023;28;20446;-64
2022/05/08 05:10:49;;;;;;;6.23;4.10;;;11.40;69.30;;;11.66;50.69;95464.72;5045220;28;20482;-64
2022/05/08 05:13:16;;;;;;;8.63;3.93;;;11.50;68.80;;;11.72;50.81;95464.19;5051480;28;20500;-59
2022/05/08 05:15:43;;;;;;;6.83;3.50;;;11.60;68.90;;;11.79;50.53;95462.72;5046473;28;20479;-64
2022/05/08 05:18:12;;;;;;;7.17;4.13;;;11.60;68.70;;;11.89;50.29;95469.81;5045975;28;20460;-57
2022/05/08 05:20:40;;;;;;;14.97;4.30;;;11.70;68.10;;;12.01;50.12;95474.88;5048641;28;20476;-58
2022/05/08 05:23:07;;;;;;;7.70;4.37;;;11.80;67.80;;;12.17;50.20;95471.72;5046656;28;20491;-56
2022/05/08 05:25:35;;;;;;;6.90;4.17;;;11.90;67.80;;;12.35;49.66;95465.81;5042634;28;20501;-58
2022/05/08 05:28:02;;;;;;;5.20;3.70;;;12.10;67.50;;;12.53;49.49;95463.34;5015987;28;1133396;-64
2022/05/08 05:30:29;;;;;;;4.23;3.60;;;12.30;67.20;;;12.72;49.36;95463.34;5053018;28;20819;-56
2022/05/08 05:32:57;;;;;;;7.30;3.70;;;12.50;67.00;;;12.95;48.83;95457.81;5051949;28;20817;-59
2022/05/08 05:35:25;;;;;;;8.70;3.60;;;12.60;66.20;;;13.19;48.39;95465.28;5049996;28;20483;-62
2022/05/08 05:37:53;;;;;;;7.30;3.40;;;12.90;65.00;;;13.40;46.60;95462.50;5047736;28;20464;-57
2022/05/08 05:40:21;;;;;;;5.93;2.80;;;13.10;61.80;;;13.55;45.61;95460.22;5043022;28;20484;-64
2022/05/08 05:42:49;;;;;;;7.20;3.10;;;13.30;59.10;;;13.71;45.04;95462.28;5050372;28;20459;-64
2022/05/08 05:45:16;;;;;;;9.23;3.80;;;13.40;58.70;;;13.88;44.75;95459.84;5043110;28;20471;-63
2022/05/08 05:47:53;;;;;;;9.83;3.40;;;13.60;58.00;;;14.07;44.06;95459.75;5049324;28;20913;-64
2022/05/08 05:50:21;;;;;;;13.07;3.00;;;13.70;57.00;;;14.27;43.90;95460.50;5045188;28;20506;-63
2022/05/08 05:52:50;;;;;;;8.03;3.70;;;14.00;56.90;;;14.46;43.03;95475.41;5048997;28;20544;-62
2022/05/08 05:55:17;;;;;;;9.23;2.90;;;14.10;55.70;;;14.66;43.16;95464.75;5047945;28;20482;-56
2022/05/08 05:57:45;;;;;;;5.80;2.70;;;14.30;55.70;;;14.86;41.44;95460.13;5048431;28;20951;-64
2022/05/08 06:00:14;;;;;;;7.17;2.90;;;14.50;53.60;;;15.03;41.56;95456.63;5047407;28;20499;-55
2022/05/08 06:02:43;;;;;;;6.30;3.30;;;14.70;53.60;;;15.19;41.74;95457.75;5041967;28;20452;-63
2022/05/08 06:05:11;;;;;;;9.33;3.93;;;14.80;53.40;;;15.39;41.26;95456.56;5046417;28;20467;-57
2022/05/08 06:07:44;;;;;;;9.53;3.90;;;15.00;53.10;;;15.60;41.07;95453.56;5056531;28;20494;-62
2022/05/08 06:10:14;;;;;;;4.67;2.67;;;15.20;52.50;;;15.85;41.04;95458.19;5041813;28;20491;-63
2022/05/08 06:12:41;;;;;;;4.47;3.43;;;15.40;52.60;;;16.06;40.09;95453.31;5050486;28;21034;-57
2022/05/08 06:15:10;;;;;;;5.63;2.53;;;15.70;51.80;;;16.31;39.84;95450.75;5044550;28;20468;-59
2022/05/08 06:17:38;;;;;;;11.53;3.00;;;15.90;51.20;;;16.55;39.34;95438.56;5048881;28;20451;-57
2022/05/08 06:20:07;;;;;;;9.50;3.40;;;16.10;50.50;;;16.78;39.27;95442.25;5054159;28;20526;-61
2022/05/08 06:22:34;;;;;;;2.37;2.13;;;16.30;50.20;;;17.00;38.56;95439.97;5046554;28;20502;-63
2022/05/08 06:25:03;;;;;;;11.73;3.27;;;16.60;49.70;;;17.16;38.13;95450.59;5048034;28;21311;-61
2022/05/08 06:27:31;;;;;;;4.83;2.80;;;16.70;49.20;;;17.37;38.36;95446.63;5051083;28;20526;-62
2022/05/08 06:29:59;;;;;;;3.70;2.83;;;16.90;48.90;;;17.56;38.09;95450.75;5043635;28;21356;-62
2022/05/08 06:32:26;;;;;;;4.70;3.37;;;17.10;49.00;;;17.75;37.70;95446.88;5044970;28;20462;-63
2022/05/08 06:34:54;;;;;;;3.00;2.50;;;17.30;48.30;;;17.96;37.47;95435.72;5038754;28;20846;-58
2022/05/08 06:37:21;;;;;;;3.80;2.77;;;17.50;47.70;;;18.19;36.92;95437.63;5051259;28;20470;-58
2022/05/08 06:39:49;;;;;;;3.70;2.80;;;17.70;47.20;;;18.43;36.64;95439.34;5053312;28;20468;-58
2022/05/08 06:42:16;;;;;;;2.50;2.30;;;17.90;46.90;;;18.66;36.64;95425.22;5050122;28;20526;-61
2022/05/08 06:44:44;;;;;;;4.30;2.70;;;18.20;46.70;;;18.90;36.38;95435.75;5051692;28;20838;-58
2022/05/08 06:47:12;;;;;;;11.40;3.50;;;18.40;46.60;;;19.07;35.58;95427.63;5049072;28;20486;-59
2022/05/08 06:49:39;;;;;;;5.03;3.30;;;18.60;46.10;;;19.16;35.74;95430.06;5045493;28;20463;-61
2022/05/08 06:52:07;;;;;;;3.60;2.80;;;18.70;45.30;;;19.18;35.54;95429.88;5045006;28;20797;-63
2022/05/08 06:54:35;;;;;;;9.33;3.00;;;18.80;45.40;;;19.23;35.41;95432.00;5044213;28;20459;-62
2022/05/08 06:57:02;;;;;;;8.97;3.40;;;18.80;45.20;;;19.38;35.61;95426.69;5041113;28;20502;-60
2022/05/08 07:02:16;;;;;;;7.13;2.83;;;19.10;45.30;;;19.94;34.69;95420.97;5040507;28;21193;-60
2022/05/08 07:04:43;;;;;;;7.47;3.37;;;19.40;44.90;;;20.18;34.51;95422.53;5043433;28;20455;-63
2022/05/08 07:07:11;;;;;;;11.23;3.53;;;19.60;44.30;;;20.44;33.96;95426.56;5045982;28;20507;-60
2022/05/08 07:09:38;;;;;;;12.90;2.73;;;19.80;44.10;;;20.66;33.96;95419.44;5044953;28;20455;-58
2022/05/08 07:12:06;;;;;;;37.87;5.13;;;20.10;43.70;;;20.90;33.61;95415.59;5045426;28;20507;-62
2022/05/08 07:14:34;;;;;;;8.20;2.80;;;20.30;43.80;;;21.06;33.53;95418.00;5044891;28;20461;-61
2022/05/08 07:17:02;;;;;;;5.67;2.70;;;20.50;43.40;;;21.21;33.11;95415.25;5049419;28;20579;-61
2022/05/08 07:19:31;;;;;;;16.43;2.90;;;20.60;42.40;;;21.29;32.85;95411.63;5051239;28;20530;-62
2022/05/08 07:21:58;;;;;;;3.03;2.80;;;20.80;42.70;;;21.37;32.34;95421.34;5058168;28;20480;-61
2022/05/08 07:24:25;;;;;;;6.53;4.57;;;20.80;41.60;;;21.38;32.40;95415.81;5050141;28;20459;-61
2022/05/08 07:26:52;;;;;;;12.47;4.40;;;20.90;41.50;;;21.48;32.70;95412.78;5044269;28;20517;-59
2022/05/08 07:29:20;;;;;;;4.10;2.50;;;21.00;42.10;;;21.65;32.20;95411.50;5053766;28;20955;-60
2022/05/08 07:31:47;;;;;;;9.77;3.80;;;21.10;41.80;;;21.75;32.30;95411.16;5053489;28;20489;-60
2022/05/08 07:37:00;;;;;;;12.40;4.10;;;21.40;41.50;;;22.20;32.19;95414.28;5045624;28;20508;-58
2022/05/08 07:39:27;;;;;;;6.17;3.33;;;21.60;41.40;;;22.42;31.40;95406.16;5057459;28;20439;-60
2022/05/08 07:41:55;;;;;;;7.60;3.20;;;21.80;40.80;;;22.60;31.19;95407.47;5046359;28;20463;-60
2022/05/08 07:44:22;;;;;;;4.03;3.03;;;22.00;40.80;;;22.83;31.22;95399.88;5045387;28;20456;-59
2022/05/08 07:46:49;;;;;;;8.27;3.93;;;22.20;40.80;;;23.00;30.84;95402.19;5046792;28;20669;-58
2022/05/08 07:49:17;;;;;;;3.77;3.10;;;22.40;40.20;;;23.08;30.73;95393.94;5047961;28;20536;-56
2022/05/08 07:51:44;;;;;;;5.13;3.07;;;22.50;39.40;;;23.12;30.47;95389.84;5045155;28;20600;-57
2022/05/08 07:54:13;;;;;;;5.77;2.80;;;22.60;39.50;;;23.28;30.26;95396.66;5047792;28;20440;-62
2022/05/08 07:56:40;;;;;;;3.20;2.90;;;22.70;40.10;;;23.41;30.05;95398.53;5046488;28;20460;-59
2022/05/08 07:59:08;;;;;;;5.00;3.30;;;22.80;39.30;;;23.43;30.04;95397.28;5045125;28;20449;-63
2022/05/08 08:01:35;;;;;;;3.73;2.90;;;22.90;39.50;;;23.59;29.77;95401.41;5046842;28;20922;-62
2022/05/08 08:04:04;;;;;;;6.37;3.13;;;23.00;39.30;;;23.70;29.84;95397.28;5050084;28;20539;-57
2022/05/08 08:06:32;;;;;;;7.90;3.13;;;23.20;39.30;;;23.84;30.50;95397.22;5062090;28;20524;-57
2022/05/08 08:08:59;;;;;;;5.40;3.37;;;23.30;39.20;;;23.91;29.80;95395.41;5051468;28;20482;-57
2022/05/08 08:11:28;;;;;;;6.30;3.30;;;23.40;38.80;;;24.01;30.15;95387.72;5061465;28;20478;-58
2022/05/08 08:13:55;;;;;;;5.73;3.23;;;23.50;38.80;;;24.07;29.31;95391.41;5056731;28;20446;-63
2022/05/08 08:16:23;;;;;;;5.53;3.23;;;23.50;38.30;;;24.09;29.00;95389.34;5055230;28;20478;-58
2022/05/08 08:18:50;;;;;;;11.13;3.13;;;23.60;38.40;;;24.28;29.98;95390.31;5057905;28;20463;-63
2022/05/08 08:21:17;;;;;;;10.20;3.20;;;23.70;38.80;;;24.60;29.50;95374.28;5060426;28;20524;-56
2022/05/08 08:23:45;;;;;;;4.20;3.53;;;24.00;38.50;;;24.80;29.10;95371.47;5062931;28;20971;-57
2022/05/08 08:26:13;;;;;;;7.17;3.77;;;24.30;38.00;;;24.82;28.46;95377.47;5064865;28;20824;-61
2022/05/08 08:28:41;;;;;;;7.83;3.60;;;24.30;37.80;;;24.68;28.03;95369.47;5062878;28;20498;-56
2022/05/08 08:31:09;;;;;;;6.27;3.43;;;24.30;36.80;;;24.60;29.27;95369.72;5065213;28;20466;-56
2022/05/08 08:33:38;;;;;;;6.33;3.00;;;24.20;37.40;;;24.76;28.83;95373.78;5062498;28;20460;-63
2022/05/08 08:36:07;;;;;;;3.40;3.10;;;24.30;37.90;;;25.08;28.62;95371.06;5061267;28;20556;-62
2022/05/08 08:38:34;;;;;;;9.90;3.60;;;24.50;38.00;;;25.40;28.82;95374.56;5060817;28;20992;-58
2022/05/08 08:41:04;;;;;;;6.80;3.67;;;24.80;37.80;;;25.59;27.50;95369.22;5061654;28;20478;-57
2022/05/08 08:47:42;;;;;;;12.30;3.30;;;25.00;36.20;;;25.57;28.13;95374.00;5063206;28;20816;-56
2022/05/08 08:49:10;;;;;;;3.10;2.90;;;25.10;37.60;;;25.44;28.01;95364.19;5061342;28;20505;-63
2022/05/08 08:51:38;;;;;;;9.57;4.07;;;25.10;36.40;;;25.37;28.16;95364.22;5063245;28;21062;-62
2022/05/08 08:54:05;;;;;;;5.53;3.33;;;25.00;36.40;;;25.35;28.00;95358.25;5061583;28;20460;-57
2022/05/08 08:56:32;;;;;;;4.53;3.47;;;25.00;36.80;;;25.48;28.21;95359.19;5055611;28;20490;-57
2022/05/08 08:59:00;;;;;;;5.60;3.30;;;25.00;36.80;;;25.65;27.72;95360.25;5044821;28;20460;-63
2022/05/08 09:01:32;;;;;;;4.67;3.40;;;25.10;36.30;;;25.81;27.81;95356.19;5053198;28;20491;-63
2022/05/08 09:04:00;;;;;;;8.37;3.60;;;25.30;36.50;;;26.11;28.11;95342.78;5059685;28;20435;-62
2022/05/08 09:06:27;;;;;;;24.77;3.17;;;25.50;36.50;;;26.38;27.91;95355.94;5061682;28;20916;-58
2022/05/08 09:08:54;;;;;;;14.07;4.27;;;25.70;35.80;;;26.53;27.62;95354.72;5060757;28;20628;-61
2022/05/08 09:11:33;;;;;;;10.93;3.40;;;25.90;36.10;;;26.57;26.70;95355.91;5063129;28;20478;-64
2022/05/08 09:14:00;;;;;;;10.13;3.23;;;26.00;35.30;;;26.54;26.97;95353.66;5054518;28;21053;-58
2022/05/08 09:16:30;;;;;;;10.63;3.73;;;26.00;35.20;;;26.46;27.49;95339.47;5055519;28;20475;-63
2022/05/08 09:18:58;;;;;;;5.50;3.13;;;26.00;35.80;;;26.58;27.50;95336.78;5059140;28;20454;-56
2022/05/08 09:24:12;;;;;;;5.30;2.83;;;26.10;35.70;;;26.83;27.33;95330.44;5056346;28;20866;-62
2022/05/08 09:26:39;;;;;;;2.50;2.40;;;26.20;35.80;;;27.00;27.15;95338.72;5061690;28;20466;-66
2022/05/08 09:29:07;;;;;;;6.60;3.60;;;26.40;35.30;;;27.19;26.95;95340.28;5062768;28;20512;-57
2022/05/08 09:31:43;;;;;;;6.30;4.00;;;26.60;35.20;;;27.24;26.37;95330.66;5060381;28;20482;-65
2022/05/08 09:34:10;;;;;;;2.80;2.50;;;26.60;34.60;;;27.21;26.18;95333.84;5060558;28;20446;-56
2022/05/08 09:36:37;;;;;;;9.63;3.63;;;26.60;34.40;;;26.93;26.01;95335.31;5062598;28;20592;-65
2022/05/08 09:39:06;;;;;;;5.20;3.03;;;26.50;33.50;;;26.57;25.98;95335.16;5063294;28;20485;-62
2022/05/08 09:41:36;;;;;;;6.83;2.77;;;26.30;33.40;;;26.20;26.33;95329.03;5060897;28;20470;-58
2022/05/08 09:44:11;;;;;;;3.20;2.90;;;26.00;33.90;;;26.00;26.34;95323.88;5061642;28;20523;-58
2022/05/08 09:46:39;;;;;;;12.73;2.97;;;25.70;34.10;;;26.04;26.69;95320.50;5061194;28;20474;-58
2022/05/08 09:49:08;;;;;;;7.40;3.30;;;25.60;35.10;;;26.21;26.60;95314.47;5054711;28;20482;-61
2022/05/08 09:51:35;;;;;;;7.40;4.00;;;25.70;34.80;;;26.45;26.59;95310.81;5062356;28;20552;-62
2022/05/08 09:54:03;;;;;;;9.67;3.50;;;25.90;34.50;;;26.70;26.30;95304.50;5051311;28;20497;-61
2022/05/08 09:56:31;;;;;;;4.40;3.20;;;26.10;34.20;;;26.96;26.01;95311.34;5057840;28;20810;-61
2022/05/08 09:58:58;;;;;;;5.70;2.23;;;26.30;33.00;;;26.95;23.71;95298.91;5057896;28;20451;-62
2022/05/08 10:01:26;;;;;;;5.93;2.70;;;26.40;30.50;;;26.77;24.22;95299.81;5066033;28;20470;-59
2022/05/08 10:03:55;;;;;;;3.40;2.07;;;26.40;30.50;;;26.77;23.77;95297.13;5052063;28;20538;-60
2022/05/08 10:06:24;;;;;;;4.93;2.07;;;26.30;30.30;;;26.63;23.24;95293.78;5058587;28;20436;-57
2022/05/08 10:08:51;;;;;;;4.13;2.00;;;26.20;29.40;;;26.39;22.76;95290.16;5053528;28;20548;-66
2022/05/08 10:14:07;;;;;;;1.50;1.40;;;25.80;27.90;;;25.88;22.10;95286.84;5061727;28;20576;-59
2022/05/08 10:16:49;;;;;;;3.43;1.57;;;25.60;28.50;;;25.68;22.17;95288.94;5049778;28;20882;-65
2022/05/08 10:19:45;;;;;;;2.20;2.00;;;25.40;28.00;;;25.50;21.67;95281.66;5051504;28;20463;-59
2022/05/08 10:22:15;;;;;;;2.07;1.97;;;25.20;27.90;;;25.37;22.83;95278.06;5039219;28;20863;-56
2022/05/08 10:24:48;;;;;;;3.07;2.23;;;25.10;29.30;;;25.45;23.11;95268.06;5049696;28;20461;-57
2022/05/08 10:27:17;;;;;;;1.20;1.10;;;25.00;29.70;;;25.55;21.85;95282.66;5044298;28;20479;-56
2022/05/08 10:30:30;;;;;;;1.50;1.40;;;25.10;28.10;;;25.39;18.54;95269.75;5055325;28;20483;-57
2022/05/08 10:32:57;;;;;;;4.23;1.60;;;25.00;27.30;;;25.34;20.82;95265.03;5048181;28;20478;-56
2022/05/08 10:35:26;;;;;;;2.37;1.43;;;24.90;27.20;;;25.36;20.30;95262.13;5046844;28;20476;-55
2022/05/08 10:38:23;;;;;;;1.37;1.27;;;24.90;25.60;;;25.31;19.80;95262.78;5056482;28;21007;-57
2022/05/08 10:40:50;;;;;;;2.23;1.50;;;24.90;25.70;;;25.44;20.23;95252.94;5048432;28;20478;-58
2022/05/08 10:43:32;;;;;;;1.60;1.07;;;24.90;26.10;;;25.57;18.47;95261.69;5055250;28;20475;-62
2022/05/08 10:46:25;;;;;;;1.20;1.00;;;25.00;24.20;;;25.45;18.10;95243.81;5062116;28;20864;-64